createdAt,value
2019-01-15T00:01:47.555Z,2.40
2019-01-15T00:04:17.806Z,2.40
2019-01-15T00:06:48.486Z,2.38
2019-01-15T00:09:19.173Z,2.48
2019-01-15T00:11:49.878Z,2.52
2019-01-15T00:14:20.388Z,2.57
2019-01-15T00:16:51.000Z,2.52
2019-01-15T00:19:21.677Z,2.47
2019-01-15T00:21:52.381Z,2.54
2019-01-15T00:24:23.014Z,2.56
2019-01-15T00:26:53.544Z,2.54
2019-01-15T00:29:25.713Z,2.61
2019-01-15T00:31:56.334Z,2.54
2019-01-15T00:34:26.967Z,2.54
2019-01-15T00:36:57.640Z,2.57
2019-01-15T00:39:28.232Z,2.56
2019-01-15T00:41:58.907Z,2.60
2019-01-15T00:44:29.717Z,2.57
2019-01-15T00:47:00.344Z,2.64
2019-01-15T00:49:30.617Z,2.56
2019-01-15T00:52:01.284Z,2.58
2019-01-15T00:54:33.152Z,2.60
2019-01-15T00:57:03.883Z,2.56
2019-01-15T00:59:36.052Z,2.55
2019-01-15T01:02:08.975Z,2.51
2019-01-15T01:04:39.169Z,2.51
2019-01-15T01:07:09.801Z,2.54
2019-01-15T01:09:41.031Z,2.63
2019-01-15T01:12:12.059Z,2.68
2019-01-15T01:14:42.700Z,2.58
2019-01-15T01:17:13.268Z,2.60
2019-01-15T01:19:43.606Z,2.54
2019-01-15T01:22:17.286Z,2.47
2019-01-15T01:24:47.907Z,2.64
2019-01-15T01:27:18.537Z,2.56
2019-01-15T01:29:51.599Z,2.62
2019-01-15T01:32:21.143Z,2.59
2019-01-15T01:34:51.670Z,2.64
2019-01-15T01:37:22.292Z,2.70
2019-01-15T01:39:52.932Z,2.70
2019-01-15T01:42:29.399Z,2.74
2019-01-15T01:44:55.460Z,2.82
2019-01-15T01:47:26.028Z,2.74
2019-01-15T01:49:56.380Z,2.73
2019-01-15T01:52:26.640Z,2.73
2019-01-15T01:54:57.255Z,2.69
2019-01-15T01:57:27.928Z,2.65
2019-01-15T01:59:58.503Z,2.66
2019-01-15T02:02:29.108Z,2.64
2019-01-15T02:04:59.736Z,2.59
2019-01-15T02:07:30.297Z,2.70
2019-01-15T02:10:01.028Z,2.66
2019-01-15T02:12:36.923Z,2.72
2019-01-15T02:15:08.421Z,2.74
2019-01-15T02:17:39.139Z,2.82
2019-01-15T02:20:11.658Z,2.80
2019-01-15T02:22:42.263Z,2.82
2019-01-15T02:25:12.894Z,2.84
2019-01-15T02:27:45.061Z,2.84
2019-01-15T02:30:20.274Z,2.92
2019-01-15T02:32:50.928Z,2.98
2019-01-15T02:35:21.540Z,2.97
2019-01-15T02:37:52.199Z,3.00
2019-01-15T02:40:22.821Z,3.06
2019-01-15T02:42:53.111Z,3.12
2019-01-15T02:45:23.671Z,3.06
2019-01-15T02:47:54.310Z,3.00
2019-01-15T02:50:24.947Z,3.04
2019-01-15T02:52:55.577Z,3.04
2019-01-15T02:55:26.102Z,3.00
2019-01-15T02:57:56.636Z,3.00
2019-01-15T03:00:29.034Z,3.02
2019-01-15T03:02:59.351Z,2.96
2019-01-15T03:05:29.956Z,2.80
2019-01-15T03:08:00.577Z,2.80
2019-01-15T03:10:31.118Z,2.78
2019-01-15T03:13:01.743Z,2.78
2019-01-15T03:15:32.277Z,2.73
2019-01-15T03:18:02.910Z,2.70
2019-01-15T03:20:33.438Z,2.68
2019-01-15T03:23:03.997Z,2.76
2019-01-15T03:25:34.604Z,2.67
2019-01-15T03:28:05.336Z,2.64
2019-01-15T03:30:35.870Z,2.58
2019-01-15T03:33:06.522Z,2.62
2019-01-15T03:35:37.134Z,2.56
2019-01-15T03:38:07.728Z,2.60
2019-01-15T03:40:38.312Z,2.54
2019-01-15T03:43:08.941Z,2.66
2019-01-15T03:45:39.574Z,2.52
2019-01-15T03:48:10.245Z,2.60
2019-01-15T03:50:42.836Z,2.58
2019-01-15T03:53:13.557Z,2.66
2019-01-15T03:55:44.250Z,2.78
2019-01-15T03:58:14.989Z,2.80
2019-01-15T04:00:45.617Z,2.86
2019-01-15T04:03:16.407Z,2.86
2019-01-15T04:05:46.977Z,2.86
2019-01-15T04:08:17.592Z,2.90
2019-01-15T04:10:48.111Z,2.90
2019-01-15T04:13:18.786Z,2.92
2019-01-15T04:15:49.390Z,2.88
2019-01-15T04:18:20.222Z,2.85
2019-01-15T04:20:51.119Z,2.84
2019-01-15T04:23:24.351Z,2.86
2019-01-15T04:25:54.994Z,2.82
2019-01-15T04:28:25.637Z,2.89
2019-01-15T04:30:56.176Z,2.89
2019-01-15T04:33:27.374Z,2.90
2019-01-15T04:35:58.108Z,3.03
2019-01-15T04:38:28.838Z,2.98
2019-01-15T04:40:59.755Z,3.03
2019-01-15T04:43:30.584Z,3.19
2019-01-15T04:46:01.235Z,3.18
2019-01-15T04:48:31.968Z,3.28
2019-01-15T04:51:02.581Z,3.22
2019-01-15T04:53:33.198Z,3.34
2019-01-15T04:56:03.808Z,3.41
2019-01-15T04:58:35.014Z,3.34
2019-01-15T05:01:05.712Z,3.45
2019-01-15T05:03:40.017Z,3.40
2019-01-15T05:06:10.649Z,3.46
2019-01-15T05:08:41.060Z,3.54
2019-01-15T05:11:11.691Z,3.50
2019-01-15T05:13:42.013Z,3.49
2019-01-15T05:16:12.609Z,3.50
2019-01-15T05:18:42.853Z,3.55
2019-01-15T05:21:13.521Z,3.54
2019-01-15T05:23:44.198Z,3.60
2019-01-15T05:26:14.967Z,3.58
2019-01-15T05:28:45.601Z,3.58
2019-01-15T05:31:16.232Z,3.56
2019-01-15T05:33:46.877Z,3.63
2019-01-15T05:36:18.646Z,3.60
2019-01-15T05:38:49.255Z,3.56
2019-01-15T05:41:19.574Z,3.64
2019-01-15T05:43:50.244Z,3.72
2019-01-15T05:46:20.513Z,3.72
2019-01-15T05:48:51.576Z,3.77
2019-01-15T05:51:23.853Z,3.80
2019-01-15T05:53:54.579Z,3.78
2019-01-15T05:56:25.012Z,3.80
2019-01-15T05:58:55.390Z,3.82
2019-01-15T06:01:26.050Z,3.88
2019-01-15T06:03:56.585Z,3.78
2019-01-15T06:06:27.260Z,3.90
2019-01-15T06:08:57.852Z,3.93
2019-01-15T06:11:28.366Z,3.94
2019-01-15T06:13:59.010Z,3.96
2019-01-15T06:16:29.647Z,3.96
2019-01-15T06:19:00.272Z,3.95
2019-01-15T06:21:30.799Z,3.96
2019-01-15T06:24:01.192Z,3.96
2019-01-15T06:26:33.283Z,3.96
2019-01-15T06:29:04.443Z,3.99
2019-01-15T06:31:35.099Z,4.01
2019-01-15T06:34:05.727Z,4.00
2019-01-15T06:36:36.447Z,4.09
2019-01-15T06:39:08.536Z,4.08
2019-01-15T06:41:39.141Z,4.10
2019-01-15T06:44:09.817Z,4.08
2019-01-15T06:46:40.631Z,4.10
2019-01-15T06:49:11.273Z,4.06
2019-01-15T06:51:41.876Z,4.12
2019-01-15T06:54:12.526Z,4.09
2019-01-15T06:56:44.311Z,4.06
2019-01-15T06:59:15.002Z,4.08
2019-01-15T07:01:45.635Z,4.12
2019-01-15T07:04:16.316Z,4.16
2019-01-15T07:06:46.999Z,4.10
2019-01-15T07:09:17.516Z,4.12
2019-01-15T07:11:47.793Z,4.10
2019-01-15T07:14:20.127Z,4.10
2019-01-15T07:16:50.850Z,4.05
2019-01-15T07:19:23.472Z,4.02
2019-01-15T07:21:54.090Z,4.03
2019-01-15T07:24:26.707Z,4.04
2019-01-15T07:26:57.272Z,4.07
2019-01-15T07:29:30.969Z,4.06
2019-01-15T07:32:01.854Z,4.04
2019-01-15T07:34:32.542Z,4.04
2019-01-15T07:37:03.177Z,4.04
2019-01-15T07:39:33.813Z,3.96
2019-01-15T07:42:07.420Z,4.05
2019-01-15T07:44:38.134Z,4.06
2019-01-15T07:47:08.807Z,4.04
2019-01-15T07:49:39.430Z,4.10
2019-01-15T07:52:10.152Z,4.10
2019-01-15T07:54:43.588Z,4.11
2019-01-15T07:57:14.241Z,4.03
2019-01-15T07:59:44.918Z,4.08
2019-01-15T08:02:16.576Z,4.10
2019-01-15T08:04:47.288Z,4.03
2019-01-15T08:07:19.183Z,4.08
2019-01-15T08:09:49.788Z,4.04
2019-01-15T08:12:20.423Z,4.09
2019-01-15T08:14:51.050Z,4.17
2019-01-15T08:17:21.609Z,4.15
2019-01-15T08:19:52.315Z,4.12
2019-01-15T08:22:22.946Z,4.10
2019-01-15T08:24:53.465Z,4.12
2019-01-15T08:27:25.227Z,4.08
2019-01-15T08:29:55.882Z,4.09
2019-01-15T08:32:26.504Z,4.10
2019-01-15T08:34:56.877Z,4.12
2019-01-15T08:37:27.555Z,4.10
2019-01-15T08:39:58.178Z,4.14
2019-01-15T08:42:28.739Z,4.17
2019-01-15T08:44:59.689Z,4.18
2019-01-15T08:47:33.086Z,4.30
2019-01-15T08:50:09.536Z,4.26
2019-01-15T08:52:43.559Z,4.21
2019-01-15T08:55:15.795Z,4.21
2019-01-15T08:57:46.323Z,4.16
2019-01-15T09:00:16.855Z,4.19
2019-01-15T09:02:47.398Z,4.16
2019-01-15T09:05:18.036Z,4.17
2019-01-15T09:07:48.415Z,4.28
2019-01-15T09:10:19.378Z,4.20
2019-01-15T09:12:49.916Z,4.16
2019-01-15T09:15:23.298Z,4.14
2019-01-15T09:17:53.941Z,4.07
2019-01-15T09:20:24.585Z,4.01
2019-01-15T09:22:55.622Z,3.96
2019-01-15T09:25:26.353Z,3.90
2019-01-15T09:27:59.221Z,3.92
2019-01-15T09:30:29.857Z,3.81
2019-01-15T09:33:00.421Z,3.90
2019-01-15T09:35:31.929Z,3.90
2019-01-15T09:38:03.343Z,3.93
2019-01-15T09:40:34.054Z,4.00
2019-01-15T09:43:04.572Z,4.02
2019-01-15T09:45:35.825Z,4.02
2019-01-15T09:48:08.800Z,4.09
2019-01-15T09:50:39.157Z,4.19
2019-01-15T09:53:13.046Z,4.16
2019-01-15T09:55:43.660Z,4.19
2019-01-15T09:58:13.883Z,4.08
2019-01-15T10:00:44.709Z,4.12
2019-01-15T10:03:15.455Z,4.10
2019-01-15T10:05:46.212Z,4.04
2019-01-15T10:08:16.822Z,4.14
2019-01-15T10:10:47.477Z,4.22
2019-01-15T10:13:18.143Z,4.16
2019-01-15T10:15:48.843Z,4.16
2019-01-15T10:18:19.502Z,4.08
2019-01-15T10:20:49.787Z,4.12
2019-01-15T10:23:20.936Z,4.02
2019-01-15T10:25:54.039Z,4.06
2019-01-15T10:28:24.778Z,4.15
2019-01-15T10:31:13.718Z,4.20
2019-01-15T10:33:47.523Z,4.18
2019-01-15T10:36:19.016Z,4.19
2019-01-15T10:38:49.913Z,4.31
2019-01-15T10:41:20.181Z,4.28
2019-01-15T10:43:50.704Z,4.34
2019-01-15T10:46:21.464Z,4.42
2019-01-15T10:48:51.726Z,4.42
2019-01-15T10:51:22.477Z,4.49
2019-01-15T10:53:53.100Z,4.51
2019-01-15T10:56:23.835Z,4.55
2019-01-15T10:58:54.570Z,4.64
2019-01-15T11:01:25.277Z,4.67
2019-01-15T11:03:55.838Z,4.70
2019-01-15T11:06:28.105Z,4.79
2019-01-15T11:08:58.735Z,4.80
2019-01-15T11:11:28.975Z,4.85
2019-01-15T11:13:59.569Z,4.84
2019-01-15T11:16:31.649Z,4.86
2019-01-15T11:19:02.276Z,4.88
2019-01-15T11:21:33.003Z,4.86
2019-01-15T11:24:05.248Z,4.93
2019-01-15T11:26:38.779Z,4.86
2019-01-15T11:29:09.494Z,4.87
2019-01-15T11:31:40.128Z,4.96
2019-01-15T11:34:14.022Z,4.92
2019-01-15T11:36:46.411Z,4.92
2019-01-15T11:39:16.945Z,4.82
2019-01-15T11:41:47.717Z,4.82
2019-01-15T11:44:20.885Z,4.82
2019-01-15T11:46:51.247Z,4.80
2019-01-15T11:49:21.827Z,4.82
2019-01-15T11:51:52.457Z,4.76
2019-01-15T11:54:24.743Z,4.82
2019-01-15T11:56:55.362Z,4.81
2019-01-15T11:59:26.203Z,4.80
2019-01-15T12:01:57.869Z,4.76
2019-01-15T12:04:32.900Z,4.79
2019-01-15T12:07:10.485Z,4.81
2019-01-15T12:09:42.947Z,4.86
2019-01-15T12:12:16.983Z,4.82
2019-01-15T12:14:55.181Z,4.88
2019-01-15T12:17:30.122Z,4.86
2019-01-15T12:20:11.090Z,4.96
2019-01-15T12:22:58.298Z,4.99
2019-01-15T12:25:35.877Z,5.04
2019-01-15T12:28:24.445Z,5.07
2019-01-15T12:31:13.213Z,5.04
2019-01-15T12:34:01.784Z,5.16
2019-01-15T12:36:40.371Z,5.08
2019-01-15T12:39:21.660Z,5.04
2019-01-15T12:41:59.696Z,5.00
2019-01-15T12:44:42.410Z,4.91
2019-01-15T12:47:16.416Z,4.98
2019-01-15T12:50:00.447Z,4.95
2019-01-15T12:52:41.613Z,4.90
2019-01-15T12:55:14.506Z,4.82
2019-01-15T12:57:46.387Z,4.83
2019-01-15T13:00:24.486Z,4.83
2019-01-15T13:03:07.455Z,4.90
2019-01-15T13:05:51.162Z,4.82
2019-01-15T13:08:23.426Z,4.82
2019-01-15T13:10:59.402Z,4.86
2019-01-15T13:13:31.632Z,4.85
2019-01-15T13:16:06.289Z,4.89
2019-01-15T13:18:50.851Z,4.91
2019-01-15T13:21:26.268Z,4.90
2019-01-15T13:24:14.917Z,4.90
2019-01-15T13:26:53.032Z,4.94
2019-01-15T13:29:27.890Z,4.95
2019-01-15T13:32:07.156Z,4.92
2019-01-15T13:34:48.378Z,4.89
2019-01-15T13:37:20.646Z,4.88
2019-01-15T13:39:52.916Z,4.90
2019-01-15T13:42:31.019Z,4.98
2019-01-15T13:45:18.754Z,4.96
2019-01-15T13:48:00.258Z,5.04
2019-01-15T13:50:35.391Z,5.08
2019-01-15T13:53:23.941Z,5.08
2019-01-15T13:55:56.198Z,5.15
2019-01-15T13:58:44.744Z,5.14
2019-01-15T14:01:28.710Z,5.16
2019-01-15T14:04:04.032Z,5.15
2019-01-15T14:06:53.676Z,5.16
2019-01-15T14:09:25.983Z,5.20
2019-01-15T14:12:00.915Z,5.30
2019-01-15T14:14:33.210Z,5.26
2019-01-15T14:17:11.307Z,5.26
2019-01-15T14:20:00.270Z,5.24
2019-01-15T14:22:38.356Z,5.22
2019-01-15T14:25:14.925Z,5.20
2019-01-15T14:27:47.188Z,5.26
2019-01-15T14:30:20.101Z,5.28
2019-01-15T14:32:55.895Z,5.31
2019-01-15T14:35:32.621Z,5.27
2019-01-15T14:38:17.191Z,5.24
2019-01-15T14:40:57.854Z,5.23
2019-01-15T14:43:46.395Z,5.30
2019-01-15T14:46:28.920Z,5.28
2019-01-15T14:49:06.903Z,5.28
2019-01-15T14:51:39.179Z,5.29
2019-01-15T14:54:17.177Z,5.33
2019-01-15T14:56:54.065Z,5.33
2019-01-15T14:59:38.301Z,5.32
2019-01-15T15:02:25.831Z,5.40
2019-01-15T15:04:58.101Z,5.37
2019-01-15T15:07:32.713Z,5.44
2019-01-15T15:10:14.128Z,5.46
2019-01-15T15:12:49.728Z,5.45
2019-01-15T15:15:24.914Z,5.49
2019-01-15T15:18:12.216Z,5.48
2019-01-15T15:20:51.103Z,5.52
2019-01-15T15:23:47.539Z,5.58
2019-01-15T15:26:42.630Z,5.62
2019-01-15T15:29:17.880Z,5.61
2019-01-15T15:32:05.793Z,5.66
2019-01-15T15:34:44.996Z,5.64
2019-01-15T15:37:26.411Z,5.64
2019-01-15T15:40:10.695Z,5.66
2019-01-15T15:42:42.907Z,5.67
2019-01-15T15:45:33.309Z,5.71
2019-01-15T15:48:05.569Z,5.68
2019-01-15T15:50:40.429Z,5.66
2019-01-15T15:53:29.171Z,5.70
2019-01-15T15:56:16.700Z,5.73
2019-01-15T15:58:52.484Z,5.76
2019-01-15T16:01:31.026Z,5.83
2019-01-15T16:04:19.645Z,5.86
2019-01-15T16:06:51.988Z,5.90
2019-01-15T16:09:28.260Z,5.83
2019-01-15T16:12:09.549Z,5.82
2019-01-15T16:14:57.571Z,5.85
2019-01-15T16:17:34.652Z,5.94
2019-01-15T16:20:15.794Z,5.93
2019-01-15T16:22:48.042Z,5.88
2019-01-15T16:25:20.334Z,5.92
2019-01-15T16:27:52.646Z,5.88
2019-01-15T16:30:31.064Z,5.94
2019-01-15T16:33:38.794Z,5.96
2019-01-15T16:36:47.216Z,5.97
2019-01-15T16:39:40.438Z,6.00
2019-01-15T16:42:11.956Z,5.98
2019-01-15T16:44:51.753Z,5.96
2019-01-15T16:47:40.278Z,6.04
2019-01-15T16:50:12.553Z,6.02
2019-01-15T16:52:49.222Z,6.06
2019-01-15T16:55:28.811Z,6.07
2019-01-15T16:58:24.114Z,6.08
2019-01-15T17:01:05.898Z,6.12
2019-01-15T17:03:56.841Z,6.14
2019-01-15T17:06:31.851Z,6.14
2019-01-15T17:09:12.552Z,6.17
2019-01-15T17:11:53.229Z,6.26
2019-01-15T17:14:37.253Z,6.18
2019-01-15T17:17:09.582Z,6.20
2019-01-15T17:19:41.845Z,6.23
2019-01-15T17:22:17.214Z,6.20
2019-01-15T17:24:58.454Z,6.20
2019-01-15T17:27:39.220Z,6.22
2019-01-15T17:30:30.650Z,6.24
2019-01-15T17:33:06.020Z,6.28
2019-01-15T17:35:41.721Z,6.29
2019-01-15T17:38:30.535Z,6.32
2019-01-15T17:41:17.846Z,6.36
2019-01-15T17:43:50.505Z,6.40
2019-01-15T17:46:28.779Z,6.48
2019-01-15T17:49:01.201Z,6.48
2019-01-15T17:51:33.470Z,6.52
2019-01-15T17:54:08.837Z,6.55
2019-01-15T17:56:40.829Z,6.62
2019-01-15T17:59:29.853Z,6.64
2019-01-15T18:02:14.090Z,6.63
2019-01-15T18:05:05.875Z,6.65
2019-01-15T18:07:37.965Z,6.66
2019-01-15T18:10:15.533Z,6.63
2019-01-15T18:13:03.830Z,6.62
2019-01-15T18:15:36.174Z,6.58
2019-01-15T18:18:28.129Z,6.52
2019-01-15T18:21:09.604Z,6.57
2019-01-15T18:23:58.468Z,6.52
2019-01-15T18:26:39.653Z,6.56
2019-01-15T18:29:27.737Z,6.51
2019-01-15T18:32:18.521Z,6.55
2019-01-15T18:34:48.994Z,6.58
2019-01-15T18:37:39.108Z,6.64
2019-01-15T18:40:15.769Z,6.60
2019-01-15T18:42:50.688Z,6.69
2019-01-15T18:45:25.745Z,6.68
2019-01-15T18:48:07.163Z,6.72
2019-01-15T18:50:51.434Z,6.70
2019-01-15T18:53:27.062Z,6.78
2019-01-15T18:56:08.391Z,6.85
2019-01-15T18:58:43.478Z,6.81
2019-01-15T19:01:15.858Z,6.87
2019-01-15T19:03:48.282Z,6.86
2019-01-15T19:06:25.202Z,6.98
2019-01-15T19:09:00.540Z,6.92
2019-01-15T19:11:41.817Z,6.90
2019-01-15T19:14:26.350Z,6.90
2019-01-15T19:17:10.844Z,6.94
2019-01-15T19:19:52.443Z,6.96
2019-01-15T19:22:25.275Z,6.97
2019-01-15T19:25:09.120Z,6.96
2019-01-15T19:27:44.220Z,7.00
2019-01-15T19:30:34.365Z,6.98
2019-01-15T19:33:09.382Z,7.01
2019-01-15T19:35:58.182Z,6.97
2019-01-15T19:38:30.570Z,6.93
2019-01-15T19:41:04.688Z,6.92
2019-01-15T19:43:46.294Z,6.90
2019-01-15T19:46:18.706Z,6.84
2019-01-15T19:48:56.693Z,6.96
2019-01-15T19:51:45.503Z,6.98
2019-01-15T19:54:17.905Z,6.92
2019-01-15T19:57:02.736Z,6.96
2019-01-15T19:59:52.788Z,6.98
2019-01-15T20:02:25.213Z,6.98
2019-01-15T20:05:14.921Z,6.96
2019-01-15T20:07:46.515Z,6.96
2019-01-15T20:10:36.743Z,6.96
2019-01-15T20:13:27.533Z,6.99
2019-01-15T20:16:16.398Z,6.98
2019-01-15T20:18:48.869Z,7.03
2019-01-15T20:21:36.052Z,7.02
2019-01-15T20:24:26.380Z,6.98
2019-01-15T20:27:01.340Z,7.00
2019-01-15T20:29:42.692Z,6.91
2019-01-15T20:32:18.042Z,6.99
2019-01-15T20:35:07.035Z,6.96
2019-01-15T20:37:48.627Z,6.95
2019-01-15T20:40:25.408Z,6.94
2019-01-15T20:43:02.863Z,6.99
2019-01-15T20:45:41.547Z,6.95
2019-01-15T20:48:13.959Z,6.93
2019-01-15T20:51:03.492Z,6.96
2019-01-15T20:53:36.221Z,6.90
2019-01-15T20:56:09.266Z,7.00
2019-01-15T20:58:56.954Z,7.05
2019-01-15T21:01:38.092Z,6.95
2019-01-15T21:04:16.048Z,6.95
2019-01-15T21:07:06.635Z,6.96
2019-01-15T21:09:44.709Z,6.98
2019-01-15T21:12:17.254Z,7.02
2019-01-15T21:15:06.520Z,7.06
2019-01-15T21:17:55.182Z,7.08
2019-01-15T21:20:27.567Z,6.97
2019-01-15T21:23:00.166Z,6.94
2019-01-15T21:25:41.817Z,6.94
2019-01-15T21:28:30.489Z,6.98
2019-01-15T21:31:18.201Z,6.96
2019-01-15T21:34:08.513Z,7.02
2019-01-15T21:36:44.125Z,6.94
2019-01-15T21:39:22.399Z,6.96
2019-01-15T21:41:55.016Z,6.98
2019-01-15T21:44:27.030Z,7.02
2019-01-15T21:46:59.373Z,7.02
2019-01-15T21:49:31.870Z,6.98
2019-01-15T21:52:13.029Z,7.00
2019-01-15T21:55:01.784Z,7.04
2019-01-15T21:57:50.540Z,7.01
2019-01-15T22:00:25.626Z,6.96
2019-01-15T22:03:16.888Z,6.99
2019-01-15T22:05:58.069Z,7.00
2019-01-15T22:08:30.348Z,6.98
2019-01-15T22:11:05.833Z,6.96
2019-01-15T22:13:54.641Z,7.03
2019-01-15T22:16:27.009Z,6.91
2019-01-15T22:19:07.895Z,7.00
2019-01-15T22:21:52.138Z,6.96
2019-01-15T22:24:27.192Z,7.04
2019-01-15T22:27:02.563Z,7.06
2019-01-15T22:29:52.804Z,7.00
2019-01-15T22:32:43.395Z,6.98
2019-01-15T22:35:15.683Z,6.93
2019-01-15T22:37:54.118Z,6.94
2019-01-15T22:40:38.347Z,6.93
2019-01-15T22:43:13.052Z,6.97
2019-01-15T22:46:00.430Z,7.00
2019-01-15T22:48:40.226Z,6.94
2019-01-15T22:51:30.085Z,6.92
2019-01-15T22:54:02.396Z,6.94
2019-01-15T22:56:52.992Z,6.92
2019-01-15T22:59:40.535Z,6.93
2019-01-15T23:02:16.763Z,6.90
2019-01-15T23:04:53.899Z,6.90
2019-01-15T23:07:33.644Z,6.95
2019-01-15T23:10:08.739Z,6.92
2019-01-15T23:12:43.571Z,6.92
2019-01-15T23:15:18.527Z,6.97
2019-01-15T23:17:50.434Z,7.00
2019-01-15T23:20:34.308Z,6.94
2019-01-15T23:23:15.691Z,6.97
2019-01-15T23:26:02.802Z,7.10
2019-01-15T23:28:46.969Z,7.01
2019-01-15T23:31:21.919Z,7.05
2019-01-15T23:34:10.538Z,7.04
2019-01-15T23:36:42.810Z,7.02
2019-01-15T23:39:20.727Z,7.08
2019-01-15T23:41:55.560Z,7.06
2019-01-15T23:44:36.872Z,7.16
2019-01-15T23:47:12.447Z,7.18
2019-01-15T23:49:54.111Z,7.22
2019-01-15T23:52:31.736Z,7.18
2019-01-15T23:55:04.135Z,7.20
2019-01-15T23:57:36.503Z,7.22
